sensor_id;sensor_type;location;lat;lon;timestamp;temperature;humidity
31799;DHT22;18374;51.136;3.502;2023-08-06T04:22:26;13.90;99.90
31799;DHT22;18374;51.136;3.502;2023-08-06T04:24:54;13.80;99.90
31799;DHT22;18374;51.136;3.502;2023-08-06T04:27:22;13.80;99.90
31799;DHT22;18374;51.136;3.502;2023-08-06T04:29:49;13.70;99.90
31799;DHT22;18374;51.136;3.502;2023-08-06T04:32:17;13.70;99.90
31799;DHT22;18374;51.136;3.502;2023-08-06T04:34:50;13.70;99.90
31799;DHT22;18374;51.136;3.502;2023-08-06T04:37:18;13.70;99.90
31799;DHT22;18374;51.136;3.502;2023-08-06T04:39:46;13.70;99.90
31799;DHT22;18374;51.136;3.502;2023-08-06T04:42:13;13.60;99.90
31799;DHT22;18374;51.136;3.502;2023-08-06T04:44:41;13.60;99.90
31799;DHT22;18374;51.136;3.502;2023-08-06T04:47:09;13.60;99.90
31799;DHT22;18374;51.136;3.502;2023-08-06T04:49:37;13.50;99.90
31799;DHT22;18374;51.136;3.502;2023-08-06T04:52:05;13.50;99.90
31799;DHT22;18374;51.136;3.502;2023-08-06T04:54:33;13.50;99.90
31799;DHT22;18374;51.136;3.502;2023-08-06T04:57:01;13.50;99.90
31799;DHT22;18374;51.136;3.502;2023-08-06T04:59:29;13.50;99.90
31799;DHT22;18374;51.136;3.502;2023-08-06T05:01:56;13.50;99.90
31799;DHT22;18374;51.136;3.502;2023-08-06T05:04:24;13.50;99.90
31799;DHT22;18374;51.136;3.502;2023-08-06T05:06:52;13.50;99.90
31799;DHT22;18374;51.136;3.502;2023-08-06T05:09:20;13.50;99.90
31799;DHT22;18374;51.136;3.502;2023-08-06T05:11:49;13.50;99.90
31799;DHT22;18374;51.136;3.502;2023-08-06T05:14:18;13.50;99.90
31799;DHT22;18374;51.136;3.502;2023-08-06T05:16:45;13.50;99.90
31799;DHT22;18374;51.136;3.502;2023-08-06T05:19:13;13.50;99.90
31799;DHT22;18374;51.136;3.502;2023-08-06T05:21:41;13.60;99.90
31799;DHT22;18374;51.136;3.502;2023-08-06T05:24:08;13.60;99.90
31799;DHT22;18374;51.136;3.502;2023-08-06T05:26:36;13.60;99.90
31799;DHT22;18374;51.136;3.502;2023-08-06T05:29:04;13.70;99.90
31799;DHT22;18374;51.136;3.502;2023-08-06T05:31:31;13.70;99.90
31799;DHT22;18374;51.136;3.502;2023-08-06T05:33:59;13.70;99.90
31799;DHT22;18374;51.136;3.502;2023-08-06T05:36:27;13.70;99.90
31799;DHT22;18374;51.136;3.502;2023-08-06T05:38:56;13.70;99.90
31799;DHT22;18374;51.136;3.502;2023-08-06T05:41:24;13.80;99.90
31799;DHT22;18374;51.136;3.502;2023-08-06T05:43:51;13.80;99.90
31799;DHT22;18374;51.136;3.502;2023-08-06T05:46:19;13.70;99.90
31799;DHT22;18374;51.136;3.502;2023-08-06T05:48:47;13.70;99.90
31799;DHT22;18374;51.136;3.502;2023-08-06T05:51:14;13.60;99.90
31799;DHT22;18374;51.136;3.502;2023-08-06T05:53:43;13.60;99.90
31799;DHT22;18374;51.136;3.502;2023-08-06T05:56:11;13.60;99.90
31799;DHT22;18374;51.136;3.502;2023-08-06T05:58:39;13.60;99.90
31799;DHT22;18374;51.136;3.502;2023-08-06T06:01:06;13.60;99.90
31799;DHT22;18374;51.136;3.502;2023-08-06T06:03:34;13.60;99.90
31799;DHT22;18374;51.136;3.502;2023-08-06T06:06:02;13.60;99.90
31799;DHT22;18374;51.136;3.502;2023-08-06T06:08:29;13.60;99.90
31799;DHT22;18374;51.136;3.502;2023-08-06T06:10:58;13.60;99.90
31799;DHT22;18374;51.136;3.502;2023-08-06T06:13:25;13.60;99.90
31799;DHT22;18374;51.136;3.502;2023-08-06T06:15:56;13.60;99.90
31799;DHT22;18374;51.136;3.502;2023-08-06T06:18:24;13.50;99.90
31799;DHT22;18374;51.136;3.502;2023-08-06T06:20:52;13.50;99.90
31799;DHT22;18374;51.136;3.502;2023-08-06T06:23:19;13.50;99.90
31799;DHT22;18374;51.136;3.502;2023-08-06T06:25:48;13.60;99.90
31799;DHT22;18374;51.136;3.502;2023-08-06T06:28:19;13.60;99.90
31799;DHT22;18374;51.136;3.502;2023-08-06T06:30:48;13.60;99.90
31799;DHT22;18374;51.136;3.502;2023-08-06T06:33:16;13.70;99.90
31799;DHT22;18374;51.136;3.502;2023-08-06T06:35:43;13.70;99.90
31799;DHT22;18374;51.136;3.502;2023-08-06T06:38:11;13.70;99.90
31799;DHT22;18374;51.136;3.502;2023-08-06T06:40:39;13.70;99.90
31799;DHT22;18374;51.136;3.502;2023-08-06T06:43:06;13.70;99.90
31799;DHT22;18374;51.136;3.502;2023-08-06T06:45:34;13.70;99.90
31799;DHT22;18374;51.136;3.502;2023-08-06T06:48:02;13.70;99.90
31799;DHT22;18374;51.136;3.502;2023-08-06T06:50:30;13.70;99.90
31799;DHT22;18374;51.136;3.502;2023-08-06T06:52:58;13.70;99.90
31799;DHT22;18374;51.136;3.502;2023-08-06T06:55:26;13.80;99.90
31799;DHT22;18374;51.136;3.502;2023-08-06T06:57:53;13.80;99.90
31799;DHT22;18374;51.136;3.502;2023-08-06T07:00:21;13.80;99.90
31799;DHT22;18374;51.136;3.502;2023-08-06T07:02:49;13.90;99.90
31799;DHT22;18374;51.136;3.502;2023-08-06T07:05:17;13.90;99.90
31799;DHT22;18374;51.136;3.502;2023-08-06T07:07:44;13.90;99.90
31799;DHT22;18374;51.136;3.502;2023-08-06T07:10:12;13.90;99.90
31799;DHT22;18374;51.136;3.502;2023-08-06T07:12:40;13.90;99.90
31799;DHT22;18374;51.136;3.502;2023-08-06T07:15:08;13.90;99.90
31799;DHT22;18374;51.136;3.502;2023-08-06T07:17:36;13.90;99.90
31799;DHT22;18374;51.136;3.502;2023-08-06T07:20:05;13.90;99.90
31799;DHT22;18374;51.136;3.502;2023-08-06T07:22:36;13.90;99.90
31799;DHT22;18374;51.136;3.502;2023-08-06T07:25:04;13.90;99.90
31799;DHT22;18374;51.136;3.502;2023-08-06T07:27:32;13.90;99.90
31799;DHT22;18374;51.136;3.502;2023-08-06T07:30:00;13.90;99.90
31799;DHT22;18374;51.136;3.502;2023-08-06T07:34:56;13.90;99.90
31799;DHT22;18374;51.136;3.502;2023-08-06T07:37:27;13.90;99.90
31799;DHT22;18374;51.136;3.502;2023-08-06T07:39:57;14.00;99.90
31799;DHT22;18374;51.136;3.502;2023-08-06T07:42:25;14.00;99.90
31799;DHT22;18374;51.136;3.502;2023-08-06T07:44:57;14.00;99.90
31799;DHT22;18374;51.136;3.502;2023-08-06T07:49:54;14.10;99.90
31799;DHT22;18374;51.136;3.502;2023-08-06T07:52:22;14.10;99.90
31799;DHT22;18374;51.136;3.502;2023-08-06T07:54:49;14.10;99.90
31799;DHT22;18374;51.136;3.502;2023-08-06T07:57:17;14.20;99.90
31799;DHT22;18374;51.136;3.502;2023-08-06T07:59:45;14.20;99.90
31799;DHT22;18374;51.136;3.502;2023-08-06T08:02:13;14.10;99.90
31799;DHT22;18374;51.136;3.502;2023-08-06T08:04:40;14.20;99.90
31799;DHT22;18374;51.136;3.502;2023-08-06T08:07:10;14.20;99.90
31799;DHT22;18374;51.136;3.502;2023-08-06T08:09:38;14.30;99.90
31799;DHT22;18374;51.136;3.502;2023-08-06T08:12:07;14.30;99.90
31799;DHT22;18374;51.136;3.502;2023-08-06T08:14:34;14.30;99.90
31799;DHT22;18374;51.136;3.502;2023-08-06T08:19:33;14.30;99.90
31799;DHT22;18374;51.136;3.502;2023-08-06T08:22:00;14.30;99.90
31799;DHT22;18374;51.136;3.502;2023-08-06T08:24:28;14.30;99.90
31799;DHT22;18374;51.136;3.502;2023-08-06T08:26:57;14.30;99.90
31799;DHT22;18374;51.136;3.502;2023-08-06T08:29:25;14.30;99.90
31799;DHT22;18374;51.136;3.502;2023-08-06T08:31:53;14.30;99.90
31799;DHT22;18374;51.136;3.502;2023-08-06T08:34:21;14.20;99.90
31799;DHT22;18374;51.136;3.502;2023-08-06T08:36:49;14.20;99.90
31799;DHT22;18374;51.136;3.502;2023-08-06T08:39:17;14.10;99.90
31799;DHT22;18374;51.136;3.502;2023-08-06T08:41:45;14.10;99.90
31799;DHT22;18374;51.136;3.502;2023-08-06T08:44:13;14.10;99.90
31799;DHT22;18374;51.136;3.502;2023-08-06T08:46:44;14.00;99.90
31799;DHT22;18374;51.136;3.502;2023-08-06T08:49:13;14.00;99.90
31799;DHT22;18374;51.136;3.502;2023-08-06T08:51:41;14.00;99.90
31799;DHT22;18374;51.136;3.502;2023-08-06T08:54:11;14.10;99.90
31799;DHT22;18374;51.136;3.502;2023-08-06T08:56:40;14.20;99.90
31799;DHT22;18374;51.136;3.502;2023-08-06T08:59:10;14.20;99.90
31799;DHT22;18374;51.136;3.502;2023-08-06T09:01:39;14.10;99.90
31799;DHT22;18374;51.136;3.502;2023-08-06T09:04:08;14.20;99.90
31799;DHT22;18374;51.136;3.502;2023-08-06T09:06:37;14.20;99.90
31799;DHT22;18374;51.136;3.502;2023-08-06T09:09:12;14.20;99.90
31799;DHT22;18374;51.136;3.502;2023-08-06T09:11:44;14.20;99.90
31799;DHT22;18374;51.136;3.502;2023-08-06T09:14:12;14.20;99.90
31799;DHT22;18374;51.136;3.502;2023-08-06T09:16:40;14.20;99.90
31799;DHT22;18374;51.136;3.502;2023-08-06T09:19:09;14.30;99.90
31799;DHT22;18374;51.136;3.502;2023-08-06T09:21:39;14.30;99.90
31799;DHT22;18374;51.136;3.502;2023-08-06T09:24:11;14.20;99.90
31799;DHT22;18374;51.136;3.502;2023-08-06T09:26:41;14.20;99.90
31799;DHT22;18374;51.136;3.502;2023-08-06T09:29:11;14.20;99.90
31799;DHT22;18374;51.136;3.502;2023-08-06T09:31:47;14.10;99.90
31799;DHT22;18374;51.136;3.502;2023-08-06T09:34:17;14.10;99.90
31799;DHT22;18374;51.136;3.502;2023-08-06T09:36:50;14.10;99.90
31799;DHT22;18374;51.136;3.502;2023-08-06T09:39:20;14.10;99.90
31799;DHT22;18374;51.136;3.502;2023-08-06T09:41:56;14.00;99.90
31799;DHT22;18374;51.136;3.502;2023-08-06T09:44:27;14.10;99.90
31799;DHT22;18374;51.136;3.502;2023-08-06T09:47:03;14.10;99.90
31799;DHT22;18374;51.136;3.502;2023-08-06T09:52:02;14.40;99.90
31799;DHT22;18374;51.136;3.502;2023-08-06T09:54:30;14.70;99.90
31799;DHT22;18374;51.136;3.502;2023-08-06T09:56:58;15.00;99.90
31799;DHT22;18374;51.136;3.502;2023-08-06T09:59:26;15.10;99.90
31799;DHT22;18374;51.136;3.502;2023-08-06T10:01:54;15.20;99.90
31799;DHT22;18374;51.136;3.502;2023-08-06T10:04:25;15.20;99.90
31799;DHT22;18374;51.136;3.502;2023-08-06T10:07:04;15.20;99.90
31799;DHT22;18374;51.136;3.502;2023-08-06T10:09:32;15.30;99.90
31799;DHT22;18374;51.136;3.502;2023-08-06T10:12:00;15.30;99.90
31799;DHT22;18374;51.136;3.502;2023-08-06T10:14:32;15.20;99.90
31799;DHT22;18374;51.136;3.502;2023-08-06T10:17:01;15.20;99.90
31799;DHT22;18374;51.136;3.502;2023-08-06T10:19:29;15.20;99.90
31799;DHT22;18374;51.136;3.502;2023-08-06T10:22:12;15.30;99.90
31799;DHT22;18374;51.136;3.502;2023-08-06T10:24:52;15.30;99.90
31799;DHT22;18374;51.136;3.502;2023-08-06T10:29:55;15.30;99.90
31799;DHT22;18374;51.136;3.502;2023-08-06T10:32:58;15.30;99.90
31799;DHT22;18374;51.136;3.502;2023-08-06T10:38:18;15.20;99.90
31799;DHT22;18374;51.136;3.502;2023-08-06T10:41:02;15.10;99.90
31799;DHT22;18374;51.136;3.502;2023-08-06T10:43:33;15.10;99.90
31799;DHT22;18374;51.136;3.502;2023-08-06T10:46:03;15.10;99.90
31799;DHT22;18374;51.136;3.502;2023-08-06T10:48:38;15.10;99.90
31799;DHT22;18374;51.136;3.502;2023-08-06T10:51:09;15.00;99.90
31799;DHT22;18374;51.136;3.502;2023-08-06T10:53:41;14.80;99.90
31799;DHT22;18374;51.136;3.502;2023-08-06T10:56:18;14.70;99.90
31799;DHT22;18374;51.136;3.502;2023-08-06T10:58:47;14.60;99.90
31799;DHT22;18374;51.136;3.502;2023-08-06T11:01:16;14.60;99.90
31799;DHT22;18374;51.136;3.502;2023-08-06T11:03:45;14.60;99.90
31799;DHT22;18374;51.136;3.502;2023-08-06T11:06:17;14.60;99.90
31799;DHT22;18374;51.136;3.502;2023-08-06T11:08:51;14.60;99.90
31799;DHT22;18374;51.136;3.502;2023-08-06T11:11:23;14.60;99.90
31799;DHT22;18374;51.136;3.502;2023-08-06T11:13:51;14.60;99.90
31799;DHT22;18374;51.136;3.502;2023-08-06T11:16:23;14.70;99.90
31799;DHT22;18374;51.136;3.502;2023-08-06T11:18:55;14.80;99.90
31799;DHT22;18374;51.136;3.502;2023-08-06T11:21:24;14.90;99.90
31799;DHT22;18374;51.136;3.502;2023-08-06T11:23:53;15.10;99.90
31799;DHT22;18374;51.136;3.502;2023-08-06T11:26:22;15.20;99.90
31799;DHT22;18374;51.136;3.502;2023-08-06T11:28:51;15.30;99.90
31799;DHT22;18374;51.136;3.502;2023-08-06T11:31:22;15.30;99.90
31799;DHT22;18374;51.136;3.502;2023-08-06T11:33:52;15.50;99.90
31799;DHT22;18374;51.136;3.502;2023-08-06T11:36:34;15.70;99.90
31799;DHT22;18374;51.136;3.502;2023-08-06T11:39:05;15.80;99.90
31799;DHT22;18374;51.136;3.502;2023-08-06T11:41:33;15.60;99.90
31799;DHT22;18374;51.136;3.502;2023-08-06T11:44:01;15.40;99.90
31799;DHT22;18374;51.136;3.502;2023-08-06T11:46:50;15.20;99.90
31799;DHT22;18374;51.136;3.502;2023-08-06T11:49:19;14.90;99.90
31799;DHT22;18374;51.136;3.502;2023-08-06T11:51:49;14.90;99.90
31799;DHT22;18374;51.136;3.502;2023-08-06T11:54:31;15.10;99.90
31799;DHT22;18374;51.136;3.502;2023-08-06T11:57:01;15.50;99.90
31799;DHT22;18374;51.136;3.502;2023-08-06T11:59:29;15.70;99.90
31799;DHT22;18374;51.136;3.502;2023-08-06T12:01:57;15.80;99.90
31799;DHT22;18374;51.136;3.502;2023-08-06T12:04:25;15.70;99.90
31799;DHT22;18374;51.136;3.502;2023-08-06T12:06:53;15.60;99.90
31799;DHT22;18374;51.136;3.502;2023-08-06T12:09:20;15.70;99.90
31799;DHT22;18374;51.136;3.502;2023-08-06T12:11:48;15.80;99.90
31799;DHT22;18374;51.136;3.502;2023-08-06T12:14:16;15.80;99.90
31799;DHT22;18374;51.136;3.502;2023-08-06T12:16:44;15.70;99.90
31799;DHT22;18374;51.136;3.502;2023-08-06T12:19:11;15.50;99.90
31799;DHT22;18374;51.136;3.502;2023-08-06T12:21:39;15.50;99.90
31799;DHT22;18374;51.136;3.502;2023-08-06T12:24:07;15.50;99.90
31799;DHT22;18374;51.136;3.502;2023-08-06T12:26:35;15.50;99.90
31799;DHT22;18374;51.136;3.502;2023-08-06T12:29:02;15.70;99.90
31799;DHT22;18374;51.136;3.502;2023-08-06T12:31:30;15.70;99.90
31799;DHT22;18374;51.136;3.502;2023-08-06T12:33:58;15.80;99.90
31799;DHT22;18374;51.136;3.502;2023-08-06T12:36:25;15.80;99.90
31799;DHT22;18374;51.136;3.502;2023-08-06T12:38:53;15.80;99.90
31799;DHT22;18374;51.136;3.502;2023-08-06T12:41:21;15.80;99.90
31799;DHT22;18374;51.136;3.502;2023-08-06T12:43:48;15.80;99.90
31799;DHT22;18374;51.136;3.502;2023-08-06T12:46:16;15.80;99.90
31799;DHT22;18374;51.136;3.502;2023-08-06T12:48:44;15.70;99.90
31799;DHT22;18374;51.136;3.502;2023-08-06T12:51:12;15.70;99.90
31799;DHT22;18374;51.136;3.502;2023-08-06T12:53:39;15.60;99.90
31799;DHT22;18374;51.136;3.502;2023-08-06T12:56:07;15.70;99.90
31799;DHT22;18374;51.136;3.502;2023-08-06T12:58:35;15.70;99.90
31799;DHT22;18374;51.136;3.502;2023-08-06T13:01:02;15.40;99.90
31799;DHT22;18374;51.136;3.502;2023-08-06T13:03:30;15.30;99.90
31799;DHT22;18374;51.136;3.502;2023-08-06T13:06:00;15.20;99.90
31799;DHT22;18374;51.136;3.502;2023-08-06T13:08:27;15.00;99.90
31799;DHT22;18374;51.136;3.502;2023-08-06T13:10:55;15.00;99.90
31799;DHT22;18374;51.136;3.502;2023-08-06T13:13:23;15.00;99.90
31799;DHT22;18374;51.136;3.502;2023-08-06T13:15:54;15.10;99.90
31799;DHT22;18374;51.136;3.502;2023-08-06T13:18:22;15.20;99.90
31799;DHT22;18374;51.136;3.502;2023-08-06T13:20:53;15.20;99.90
31799;DHT22;18374;51.136;3.502;2023-08-06T13:23:22;15.40;99.90
31799;DHT22;18374;51.136;3.502;2023-08-06T13:25:49;15.40;99.90
31799;DHT22;18374;51.136;3.502;2023-08-06T13:28:17;15.40;99.90
31799;DHT22;18374;51.136;3.502;2023-08-06T13:30:45;15.30;99.90
31799;DHT22;18374;51.136;3.502;2023-08-06T13:33:13;15.20;99.90
31799;DHT22;18374;51.136;3.502;2023-08-06T13:35:41;15.10;99.90
31799;DHT22;18374;51.136;3.502;2023-08-06T13:38:09;15.00;99.90
31799;DHT22;18374;51.136;3.502;2023-08-06T13:40:37;14.80;99.90
31799;DHT22;18374;51.136;3.502;2023-08-06T13:43:04;14.70;99.90
31799;DHT22;18374;51.136;3.502;2023-08-06T13:45:32;14.60;99.90
31799;DHT22;18374;51.136;3.502;2023-08-06T13:48:02;14.60;99.90
31799;DHT22;18374;51.136;3.502;2023-08-06T13:50:31;14.70;99.90
31799;DHT22;18374;51.136;3.502;2023-08-06T13:52:59;14.90;99.90
31799;DHT22;18374;51.136;3.502;2023-08-06T13:55:26;15.10;99.90
31799;DHT22;18374;51.136;3.502;2023-08-06T13:57:55;15.30;99.90
31799;DHT22;18374;51.136;3.502;2023-08-06T14:02:51;15.70;99.90
31799;DHT22;18374;51.136;3.502;2023-08-06T14:05:21;15.80;99.90
31799;DHT22;18374;51.136;3.502;2023-08-06T14:07:49;16.10;99.90
31799;DHT22;18374;51.136;3.502;2023-08-06T14:10:17;16.30;99.90
31799;DHT22;18374;51.136;3.502;2023-08-06T14:12:45;16.60;99.90
31799;DHT22;18374;51.136;3.502;2023-08-06T14:15:25;16.80;99.90
31799;DHT22;18374;51.136;3.502;2023-08-06T14:17:53;16.80;99.90
31799;DHT22;18374;51.136;3.502;2023-08-06T14:20:21;16.70;99.90
31799;DHT22;18374;51.136;3.502;2023-08-06T14:22:48;16.70;99.90
31799;DHT22;18374;51.136;3.502;2023-08-06T14:25:16;17.00;99.90
31799;DHT22;18374;51.136;3.502;2023-08-06T14:27:44;17.10;99.90
31799;DHT22;18374;51.136;3.502;2023-08-06T14:30:11;17.10;99.90
31799;DHT22;18374;51.136;3.502;2023-08-06T14:32:39;17.10;99.90
31799;DHT22;18374;51.136;3.502;2023-08-06T14:35:07;17.10;99.90
31799;DHT22;18374;51.136;3.502;2023-08-06T14:37:35;17.00;99.90
31799;DHT22;18374;51.136;3.502;2023-08-06T14:40:03;16.80;99.90
31799;DHT22;18374;51.136;3.502;2023-08-06T14:42:31;16.80;99.90
31799;DHT22;18374;51.136;3.502;2023-08-06T14:44:59;16.90;99.90
31799;DHT22;18374;51.136;3.502;2023-08-06T14:47:27;16.90;99.90
31799;DHT22;18374;51.136;3.502;2023-08-06T14:49:54;16.90;99.90
31799;DHT22;18374;51.136;3.502;2023-08-06T14:52:22;17.00;99.90
31799;DHT22;18374;51.136;3.502;2023-08-06T14:54:50;17.00;99.90
31799;DHT22;18374;51.136;3.502;2023-08-06T14:57:19;17.20;99.90
31799;DHT22;18374;51.136;3.502;2023-08-06T14:59:48;17.10;99.90
31799;DHT22;18374;51.136;3.502;2023-08-06T15:02:16;17.00;99.90
31799;DHT22;18374;51.136;3.502;2023-08-06T15:04:44;17.00;99.90
31799;DHT22;18374;51.136;3.502;2023-08-06T15:07:12;17.00;99.90
31799;DHT22;18374;51.136;3.502;2023-08-06T15:09:40;16.90;99.90
31799;DHT22;18374;51.136;3.502;2023-08-06T15:12:27;16.90;99.90
31799;DHT22;18374;51.136;3.502;2023-08-06T15:14:55;16.90;99.90
31799;DHT22;18374;51.136;3.502;2023-08-06T15:17:24;16.90;99.90
31799;DHT22;18374;51.136;3.502;2023-08-06T15:19:56;16.80;99.90
31799;DHT22;18374;51.136;3.502;2023-08-06T15:22:26;16.70;99.90
31799;DHT22;18374;51.136;3.502;2023-08-06T15:24:54;16.60;99.90
31799;DHT22;18374;51.136;3.502;2023-08-06T15:27:22;16.60;99.90
31799;DHT22;18374;51.136;3.502;2023-08-06T15:29:49;16.60;99.90
31799;DHT22;18374;51.136;3.502;2023-08-06T15:32:18;16.40;99.90
31799;DHT22;18374;51.136;3.502;2023-08-06T15:34:48;16.30;99.90
31799;DHT22;18374;51.136;3.502;2023-08-06T15:37:16;16.30;99.90
31799;DHT22;18374;51.136;3.502;2023-08-06T15:39:45;16.40;99.90
31799;DHT22;18374;51.136;3.502;2023-08-06T15:42:13;16.40;99.90
31799;DHT22;18374;51.136;3.502;2023-08-06T15:44:43;16.40;99.90
31799;DHT22;18374;51.136;3.502;2023-08-06T15:47:12;16.40;99.90
31799;DHT22;18374;51.136;3.502;2023-08-06T15:49:40;16.70;99.90
31799;DHT22;18374;51.136;3.502;2023-08-06T15:52:08;16.90;99.90
31799;DHT22;18374;51.136;3.502;2023-08-06T15:54:36;17.10;99.90
31799;DHT22;18374;51.136;3.502;2023-08-06T15:57:04;17.00;99.90
31799;DHT22;18374;51.136;3.502;2023-08-06T15:59:32;17.00;99.90
31799;DHT22;18374;51.136;3.502;2023-08-06T16:02:00;16.90;99.90
31799;DHT22;18374;51.136;3.502;2023-08-06T16:04:33;16.90;99.90
31799;DHT22;18374;51.136;3.502;2023-08-06T16:07:01;17.00;99.90
31799;DHT22;18374;51.136;3.502;2023-08-06T16:09:28;17.10;99.90
31799;DHT22;18374;51.136;3.502;2023-08-06T16:11:56;17.00;99.90
31799;DHT22;18374;51.136;3.502;2023-08-06T16:14:24;16.90;99.90
31799;DHT22;18374;51.136;3.502;2023-08-06T16:16:52;16.80;99.90
31799;DHT22;18374;51.136;3.502;2023-08-06T16:19:20;16.60;99.90
31799;DHT22;18374;51.136;3.502;2023-08-06T16:21:51;16.60;99.90
31799;DHT22;18374;51.136;3.502;2023-08-06T16:24:19;16.70;99.90
31799;DHT22;18374;51.136;3.502;2023-08-06T16:26:46;16.70;99.90
31799;DHT22;18374;51.136;3.502;2023-08-06T16:29:14;16.60;99.90
31799;DHT22;18374;51.136;3.502;2023-08-06T16:31:42;16.50;99.90
31799;DHT22;18374;51.136;3.502;2023-08-06T16:34:09;16.50;99.90
31799;DHT22;18374;51.136;3.502;2023-08-06T16:36:37;16.40;99.90
31799;DHT22;18374;51.136;3.502;2023-08-06T16:39:05;16.30;99.90
31799;DHT22;18374;51.136;3.502;2023-08-06T16:41:33;16.40;99.90
31799;DHT22;18374;51.136;3.502;2023-08-06T16:44:01;16.50;99.90
31799;DHT22;18374;51.136;3.502;2023-08-06T16:46:28;16.50;99.90
31799;DHT22;18374;51.136;3.502;2023-08-06T16:48:56;16.50;99.90
31799;DHT22;18374;51.136;3.502;2023-08-06T16:51:24;16.40;99.90
31799;DHT22;18374;51.136;3.502;2023-08-06T16:53:55;16.40;99.90
31799;DHT22;18374;51.136;3.502;2023-08-06T16:56:22;16.30;99.90
31799;DHT22;18374;51.136;3.502;2023-08-06T16:58:50;16.30;99.90
31799;DHT22;18374;51.136;3.502;2023-08-06T17:01:18;16.30;99.90
31799;DHT22;18374;51.136;3.502;2023-08-06T17:03:46;16.30;99.90
31799;DHT22;18374;51.136;3.502;2023-08-06T17:06:15;16.30;99.90
31799;DHT22;18374;51.136;3.502;2023-08-06T17:08:44;16.20;99.90
31799;DHT22;18374;51.136;3.502;2023-08-06T17:11:12;16.20;99.90
31799;DHT22;18374;51.136;3.502;2023-08-06T17:13:39;16.10;99.90
31799;DHT22;18374;51.136;3.502;2023-08-06T17:16:07;16.10;99.90
31799;DHT22;18374;51.136;3.502;2023-08-06T17:18:35;16.10;99.90
31799;DHT22;18374;51.136;3.502;2023-08-06T17:21:03;16.20;99.90
31799;DHT22;18374;51.136;3.502;2023-08-06T17:23:30;16.30;99.90
31799;DHT22;18374;51.136;3.502;2023-08-06T17:25:58;16.40;99.90
31799;DHT22;18374;51.136;3.502;2023-08-06T17:28:26;16.50;99.90
31799;DHT22;18374;51.136;3.502;2023-08-06T17:30:54;16.30;99.90
31799;DHT22;18374;51.136;3.502;2023-08-06T17:33:24;16.30;99.90
31799;DHT22;18374;51.136;3.502;2023-08-06T17:35:51;16.20;99.90
31799;DHT22;18374;51.136;3.502;2023-08-06T17:38:20;16.20;99.90
31799;DHT22;18374;51.136;3.502;2023-08-06T17:40:55;16.20;99.90
31799;DHT22;18374;51.136;3.502;2023-08-06T17:43:24;16.10;99.90
31799;DHT22;18374;51.136;3.502;2023-08-06T17:45:51;16.10;99.90
31799;DHT22;18374;51.136;3.502;2023-08-06T17:48:19;16.00;99.90
31799;DHT22;18374;51.136;3.502;2023-08-06T17:50:47;16.00;99.90
31799;DHT22;18374;51.136;3.502;2023-08-06T17:53:15;16.00;99.90
31799;DHT22;18374;51.136;3.502;2023-08-06T17:55:42;16.00;99.90
31799;DHT22;18374;51.136;3.502;2023-08-06T17:58:10;16.10;99.90
31799;DHT22;18374;51.136;3.502;2023-08-06T18:00:38;16.10;99.90
31799;DHT22;18374;51.136;3.502;2023-08-06T18:03:05;16.10;99.90
31799;DHT22;18374;51.136;3.502;2023-08-06T18:05:33;16.20;99.90
31799;DHT22;18374;51.136;3.502;2023-08-06T18:08:02;16.20;99.90
31799;DHT22;18374;51.136;3.502;2023-08-06T18:10:30;16.00;99.90
31799;DHT22;18374;51.136;3.502;2023-08-06T18:12:58;15.90;99.90
